Isanti, Minnesota
Current Conditions -  °F | °C
As of 2:16 AM on Tuesday 27 Jan 2015 (Local Time) from KCBG Reporting Station
Overcast Overcast  
Wind Chill: 36°   Ceiling: 2300
Heat Index: 36°   Visibility: 10mi
Dew Point: 25°   Wind: 3mph
Humidity: 65%   Direction: 330°NNW
Pressure: 30.02"   Gusts: NA
Location:  45.49°N, 93.25°W
Report Text: KCBG 270816Z AUTO 33003KT 10SM OVC023 02/M04 A3002 RMK AO2
Loading
Personal Weather Stations






























Interactive Weather Map New forecast layout! Learn more

10-Day Weather Forecast

Advertisements
Track Severe Weather on mobile